Airfield :
LOGIN :

Register | Disclaimer

   EN    FR    IT 

 










Legend :    VFR   Marginal VFR   IFR   Intensive IFR   Very Intensive IFR
Visi :
Ceiling :
>= 8 km
>= 3000ft
5 to 8 km
1000 to 3000 ft
1500m to 5 km
500 to 1000 ft
800 to 1500m
200 to 500 ft
< 800m
< 200 ft
Symbols :   Thunderstorms  Fog  Heavy snow  Heavy precipitations  Wind > 20 kt
SIGMETs :     Misc.  Thunderstorms  Icing  Turbulence  Mountain Waves  Volcanic Ashes






- Airport Elevation : 699 ft
- IATA code : PAD


EDLP - Paderborn Lippstadt

CURRENT METAR :
  • 261520Z 17008KT CAVOK 23/09 Q1015

EXPIRED METARs :
  • 261450Z 18010KT 150V210 CAVOK 23/09 Q1015
  • 261420Z 17010KT 140V200 CAVOK 24/10 Q1015
  • 261350Z 22009KT 9999 FEW043 21/11 Q1015
  • 261320Z 16010KT 9999 VCSH SCT044TCU 21/10 Q1016
  • 261250Z 17009KT CAVOK 22/11 Q1016
  • 261220Z 15011KT CAVOK 23/10 Q1016
  • 261150Z 17010KT 090V210 9999 SCT049 22/10 Q1016
  • 261120Z 15010KT 9999 SCT048 22/10 Q1017
  • 261050Z 14009KT 9999 FEW048 22/10 Q1016

TAF TAF EDLP
Valid from the 26 at 12:00 until the 27 at 12:00 UTC


261100Z 2612/2712 17009KT CAVOK
PROB30
TEMPO 2612/2615 SHRA SCT045CB
PROB40
TEMPO 2621/2623 SHRA BKN040CB
BECMG 2700/2702 24004KT
PROB30
TEMPO 2711/2712 SHRA BKN030CB



MET'MAP, your aeronautical weather chart ! - Copyright ORBIFLY December 2007 - Disclaimer

ORBIFLY MET'MAP TEAM :

Programming & Development : Alexandra Zaïnal
Original concept : Baudouin d'Aumeries
Technical & hardware support : Manuel Goepfert
Assistance : Marc-Olivier Méhu




SOURCES & CREDITS :

   NOAA